createdAt,value
2018-06-18T00:01:30.233Z,17.34
2018-06-18T00:04:03.615Z,17.35
2018-06-18T00:06:36.980Z,17.36
2018-06-18T00:09:14.542Z,17.38
2018-06-18T00:11:47.890Z,17.38
2018-06-18T00:14:21.284Z,17.37
2018-06-18T00:16:54.638Z,17.37
2018-06-18T00:19:28.022Z,17.39
2018-06-18T00:22:01.421Z,17.42
2018-06-18T00:24:34.813Z,17.43
2018-06-18T00:27:08.233Z,17.44
2018-06-18T00:29:41.637Z,17.45
2018-06-18T00:32:15.041Z,17.48
2018-06-18T00:34:48.443Z,17.49
2018-06-18T00:37:21.803Z,17.51
2018-06-18T00:39:55.511Z,17.52
2018-06-18T00:42:28.904Z,17.52
2018-06-18T00:45:02.360Z,17.51
2018-06-18T00:47:35.750Z,17.50
2018-06-18T00:50:09.153Z,17.46
2018-06-18T00:52:42.547Z,17.41
2018-06-18T00:55:27.288Z,17.36
2018-06-18T00:58:00.779Z,17.31
2018-06-18T01:00:34.227Z,17.25
2018-06-18T01:03:07.607Z,17.18
2018-06-18T01:05:41.019Z,17.16
2018-06-18T01:08:14.387Z,17.13
2018-06-18T01:10:47.792Z,17.11
2018-06-18T01:13:21.176Z,17.06
2018-06-18T01:15:54.619Z,17.02
2018-06-18T01:18:28.452Z,16.95
2018-06-18T01:21:01.860Z,16.87
2018-06-18T01:23:45.038Z,16.77
2018-06-18T01:26:18.460Z,16.69
2018-06-18T01:28:51.858Z,16.63
2018-06-18T01:31:25.363Z,16.58
2018-06-18T01:34:00.990Z,16.52
2018-06-18T01:36:34.369Z,16.48
2018-06-18T01:39:08.403Z,16.42
2018-06-18T01:41:41.798Z,16.37
2018-06-18T01:44:15.229Z,16.31
2018-06-18T01:46:48.628Z,16.29
2018-06-18T01:49:22.024Z,16.21
2018-06-18T01:51:55.380Z,16.19
2018-06-18T01:54:28.850Z,16.14
2018-06-18T01:57:02.251Z,16.12
2018-06-18T01:59:35.652Z,16.07
2018-06-18T02:02:09.063Z,16.02
2018-06-18T02:04:42.468Z,15.92
2018-06-18T02:07:15.831Z,15.85
2018-06-18T02:09:49.225Z,15.79
2018-06-18T02:12:22.616Z,15.73
2018-06-18T02:14:56.012Z,15.68
2018-06-18T02:17:29.424Z,15.65
2018-06-18T02:20:02.876Z,15.58
2018-06-18T02:22:36.281Z,15.53
2018-06-18T02:25:09.723Z,15.49
2018-06-18T02:27:48.520Z,15.44
2018-06-18T02:30:27.201Z,15.41
2018-06-18T02:33:05.962Z,15.40
2018-06-18T02:35:44.797Z,15.38
2018-06-18T02:38:23.415Z,15.41
2018-06-18T02:40:56.839Z,15.44
2018-06-18T02:43:30.244Z,15.47
2018-06-18T02:46:03.664Z,15.50
2018-06-18T02:48:37.043Z,15.51
2018-06-18T02:51:10.508Z,15.55
2018-06-18T02:53:44.031Z,15.58
2018-06-18T02:56:18.496Z,15.62
2018-06-18T02:58:51.877Z,15.63
2018-06-18T03:01:25.333Z,15.64
2018-06-18T03:03:58.732Z,15.66
2018-06-18T03:06:32.158Z,15.69
2018-06-18T03:09:08.189Z,15.73
2018-06-18T03:11:41.666Z,15.78
2018-06-18T03:14:15.066Z,15.82
2018-06-18T03:16:48.500Z,15.86
2018-06-18T03:19:27.086Z,15.89
2018-06-18T03:22:05.753Z,15.90
2018-06-18T03:25:01.170Z,15.95
2018-06-18T03:28:38.356Z,16.00
2018-06-18T03:31:11.792Z,16.06
2018-06-18T03:33:45.177Z,16.05
2018-06-18T03:36:18.614Z,16.07
2018-06-18T03:38:52.082Z,16.11
2018-06-18T03:41:25.504Z,16.13
2018-06-18T03:44:04.881Z,16.15
2018-06-18T03:46:38.340Z,16.20
2018-06-18T03:49:11.731Z,16.20
2018-06-18T03:51:45.123Z,16.22
2018-06-18T03:54:18.485Z,16.26
2018-06-18T03:56:51.936Z,16.29
2018-06-18T03:59:25.351Z,16.30
2018-06-18T04:03:23.759Z,16.33
2018-06-18T04:06:02.574Z,16.40
2018-06-18T04:08:36.017Z,16.41
2018-06-18T04:11:14.659Z,16.41
2018-06-18T04:13:48.076Z,16.43
2018-06-18T04:16:21.467Z,16.44
2018-06-18T04:18:54.913Z,16.47
2018-06-18T04:21:28.289Z,16.50
2018-06-18T04:24:01.733Z,16.54
2018-06-18T04:26:35.142Z,16.60
2018-06-18T04:29:08.653Z,16.65
2018-06-18T04:31:42.146Z,16.69
2018-06-18T04:35:21.713Z,16.75
2018-06-18T04:37:55.103Z,16.83
2018-06-18T04:40:28.485Z,16.82
2018-06-18T04:43:07.323Z,16.86
2018-06-18T04:45:45.275Z,16.89
2018-06-18T04:48:23.961Z,16.97
2018-06-18T04:50:58.888Z,17.01
2018-06-18T04:53:32.387Z,17.03
2018-06-18T04:56:05.781Z,17.11
2018-06-18T04:58:39.181Z,17.17
2018-06-18T05:01:20.627Z,17.16
2018-06-18T05:03:54.501Z,17.22
2018-06-18T05:06:29.217Z,17.26
2018-06-18T05:09:17.724Z,17.29
2018-06-18T05:11:51.096Z,17.40
2018-06-18T05:14:24.527Z,17.43
2018-06-18T05:16:57.883Z,17.47
2018-06-18T05:19:31.387Z,17.51
2018-06-18T05:22:04.794Z,17.59
2018-06-18T05:24:38.241Z,17.64
2018-06-18T05:27:13.594Z,17.68
2018-06-18T05:29:47.403Z,17.73
2018-06-18T05:32:20.804Z,17.72
2018-06-18T05:34:54.216Z,17.79
2018-06-18T05:37:42.616Z,17.94
2018-06-18T05:40:16.019Z,18.07
2018-06-18T05:42:49.534Z,18.13
2018-06-18T05:45:22.971Z,18.23
2018-06-18T05:47:56.394Z,18.40
2018-06-18T05:50:29.940Z,18.50
2018-06-18T05:53:03.296Z,18.59
2018-06-18T05:55:36.766Z,18.75
2018-06-18T05:58:10.220Z,18.80
2018-06-18T06:00:43.697Z,18.90
2018-06-18T06:03:17.148Z,18.95
2018-06-18T06:05:50.552Z,19.07
2018-06-18T06:08:23.907Z,19.10
2018-06-18T06:10:57.314Z,19.16
2018-06-18T06:13:30.758Z,19.17
2018-06-18T06:16:04.186Z,19.23
2018-06-18T06:18:37.592Z,19.29
2018-06-18T06:21:12.991Z,19.30
2018-06-18T06:23:46.461Z,19.34
2018-06-18T06:26:19.900Z,19.37
2018-06-18T06:28:53.346Z,19.44
2018-06-18T06:31:26.764Z,19.43
2018-06-18T06:34:00.229Z,19.37
2018-06-18T06:36:33.583Z,19.51
2018-06-18T06:39:09.516Z,19.64
2018-06-18T06:41:47.194Z,19.67
2018-06-18T06:44:20.633Z,19.73
2018-06-18T06:46:54.004Z,19.78
2018-06-18T06:49:27.380Z,19.85
2018-06-18T06:52:00.779Z,19.75
2018-06-18T06:54:34.184Z,19.81
2018-06-18T06:57:07.586Z,19.99
2018-06-18T06:59:41.007Z,20.01
2018-06-18T07:02:14.354Z,20.15
2018-06-18T07:04:47.783Z,20.26
2018-06-18T07:07:21.243Z,20.31
2018-06-18T07:09:54.711Z,20.30
2018-06-18T07:12:28.083Z,20.29
2018-06-18T07:15:01.535Z,20.33
2018-06-18T07:17:35.373Z,20.34
2018-06-18T07:20:08.765Z,20.41
2018-06-18T07:22:42.152Z,20.51
2018-06-18T07:25:15.608Z,20.59
2018-06-18T07:27:49.009Z,20.58
2018-06-18T07:30:22.506Z,20.66
2018-06-18T07:32:55.840Z,20.59
2018-06-18T07:35:29.214Z,20.59
2018-06-18T07:38:02.631Z,20.72
2018-06-18T07:40:36.012Z,20.74
2018-06-18T07:43:09.380Z,20.94
2018-06-18T07:45:42.862Z,20.92
2018-06-18T07:48:16.224Z,21.04
2018-06-18T07:50:49.633Z,21.29
2018-06-18T07:53:23.030Z,21.55
2018-06-18T07:55:56.504Z,21.81
2018-06-18T07:58:29.897Z,22.04
2018-06-18T08:01:03.311Z,22.08
2018-06-18T08:03:36.746Z,22.12
2018-06-18T08:06:10.136Z,22.36
2018-06-18T08:08:43.557Z,22.36
2018-06-18T08:11:16.944Z,22.54
2018-06-18T08:13:50.340Z,22.62
2018-06-18T08:16:23.775Z,22.64
2018-06-18T08:18:57.160Z,22.59
2018-06-18T08:21:30.598Z,22.45
2018-06-18T08:24:04.062Z,22.45
2018-06-18T08:26:37.507Z,22.55
2018-06-18T08:29:10.880Z,22.57
2018-06-18T08:31:44.288Z,22.65
2018-06-18T08:34:17.677Z,22.80
2018-06-18T08:36:51.096Z,22.80
2018-06-18T08:39:24.476Z,22.79
2018-06-18T08:41:57.871Z,22.72
2018-06-18T08:44:31.265Z,22.70
2018-06-18T08:47:04.669Z,22.77
2018-06-18T08:51:45.624Z,22.70
2018-06-18T08:54:24.187Z,22.77
2018-06-18T08:57:03.023Z,22.78
2018-06-18T08:59:41.528Z,22.80
2018-06-18T09:02:15.031Z,22.73
2018-06-18T09:04:52.572Z,22.73
2018-06-18T09:07:26.013Z,22.59
2018-06-18T09:09:59.951Z,22.63
2018-06-18T09:12:33.417Z,22.53
2018-06-18T09:15:07.324Z,22.38
2018-06-18T09:17:40.727Z,22.39
2018-06-18T09:20:14.087Z,22.25
2018-06-18T09:22:47.484Z,22.18
2018-06-18T09:25:20.955Z,22.26
2018-06-18T09:27:54.365Z,22.45
2018-06-18T09:30:27.746Z,22.57
2018-06-18T09:33:01.173Z,22.64
2018-06-18T09:35:34.558Z,22.69
2018-06-18T09:38:07.968Z,22.57
2018-06-18T09:40:41.362Z,22.55
2018-06-18T09:43:14.785Z,22.65
2018-06-18T09:45:48.174Z,22.63
2018-06-18T09:48:25.754Z,22.68
2018-06-18T09:51:04.439Z,22.77
2018-06-18T09:53:43.198Z,22.87
2018-06-18T09:56:21.820Z,22.85
2018-06-18T09:59:00.432Z,22.83
2018-06-18T10:01:34.570Z,23.01
2018-06-18T10:04:08.002Z,23.08
2018-06-18T10:06:41.374Z,23.18
2018-06-18T10:09:14.804Z,23.28
2018-06-18T10:11:48.169Z,23.45
2018-06-18T10:14:21.589Z,23.43
2018-06-18T10:16:54.968Z,23.32
2018-06-18T10:19:28.361Z,23.25
2018-06-18T10:22:01.765Z,23.11
2018-06-18T10:24:35.189Z,23.08
2018-06-18T10:27:08.598Z,23.10
2018-06-18T10:29:42.019Z,23.08
2018-06-18T10:32:20.540Z,22.98
2018-06-18T10:34:59.225Z,22.89
2018-06-18T10:37:37.866Z,22.77
2018-06-18T10:40:16.556Z,22.84
2018-06-18T10:42:55.084Z,23.10
2018-06-18T10:45:28.446Z,23.37
2018-06-18T10:48:01.883Z,23.55
2018-06-18T10:50:35.295Z,23.81
2018-06-18T10:53:08.648Z,23.79
2018-06-18T10:55:42.060Z,23.72
2018-06-18T10:58:15.436Z,23.51
2018-06-18T11:00:53.995Z,23.39
2018-06-18T11:03:27.362Z,23.47
2018-06-18T11:06:06.053Z,23.51
2018-06-18T11:08:39.455Z,23.60
2018-06-18T11:11:12.795Z,23.48
2018-06-18T11:13:46.237Z,23.41
2018-06-18T11:16:19.700Z,23.43
2018-06-18T11:18:58.423Z,23.41
2018-06-18T11:21:36.967Z,23.24
2018-06-18T11:24:15.828Z,23.20
2018-06-18T11:26:54.523Z,23.21
2018-06-18T11:29:27.947Z,23.14
2018-06-18T11:32:01.319Z,23.18
2018-06-18T11:34:34.707Z,23.24
2018-06-18T11:37:08.106Z,23.25
2018-06-18T11:42:13.996Z,22.95
2018-06-18T11:44:47.420Z,22.87
2018-06-18T11:47:20.776Z,22.90
2018-06-18T11:49:54.177Z,22.91
2018-06-18T11:52:27.587Z,22.72
2018-06-18T11:55:01.030Z,22.57
2018-06-18T11:57:34.413Z,22.45
2018-06-18T12:00:12.980Z,22.77
2018-06-18T12:02:51.612Z,22.76
2018-06-18T12:05:30.158Z,22.89
2018-06-18T12:08:08.762Z,23.15
2018-06-18T12:10:42.180Z,23.34
2018-06-18T12:13:15.548Z,23.43
2018-06-18T12:15:48.936Z,23.56
2018-06-18T12:18:22.289Z,23.61
2018-06-18T12:20:55.665Z,23.55
2018-06-18T12:23:29.023Z,23.69
2018-06-18T12:26:02.418Z,23.76
2018-06-18T12:28:35.783Z,23.59
2018-06-18T12:31:09.261Z,23.69
2018-06-18T12:33:42.633Z,23.66
2018-06-18T12:36:16.032Z,23.78
2018-06-18T12:38:49.398Z,23.59
2018-06-18T12:41:22.841Z,23.53
2018-06-18T12:43:58.732Z,23.65
2018-06-18T12:46:37.413Z,23.62
2018-06-18T12:49:16.026Z,23.63
2018-06-18T12:51:54.658Z,23.78
2018-06-18T12:54:33.380Z,23.78
2018-06-18T12:57:08.173Z,23.83
2018-06-18T12:59:41.616Z,24.12
2018-06-18T13:02:18.489Z,24.18
2018-06-18T13:04:56.313Z,24.37
2018-06-18T13:07:29.796Z,24.39
2018-06-18T13:10:03.182Z,24.36
2018-06-18T13:12:36.585Z,24.27
2018-06-18T13:15:09.933Z,24.34
2018-06-18T13:17:43.292Z,24.28
2018-06-18T13:20:16.745Z,24.27
2018-06-18T13:22:50.102Z,24.35
2018-06-18T13:25:23.504Z,24.44
2018-06-18T13:28:02.048Z,24.44
2018-06-18T13:30:35.429Z,24.46
2018-06-18T13:33:08.824Z,24.74
2018-06-18T13:35:42.209Z,24.79
2018-06-18T13:38:20.871Z,24.79
2018-06-18T13:41:00.454Z,24.73
2018-06-18T13:43:38.997Z,24.62
2018-06-18T13:46:17.600Z,24.58
2018-06-18T13:48:54.829Z,24.44
2018-06-18T13:51:28.750Z,24.47
2018-06-18T13:54:02.135Z,24.63
2018-06-18T13:56:35.522Z,24.78
2018-06-18T13:59:08.900Z,24.77
2018-06-18T14:01:42.306Z,24.60
2018-06-18T14:04:15.681Z,24.65
2018-06-18T14:06:49.085Z,24.50
2018-06-18T14:09:22.424Z,24.41
2018-06-18T14:11:55.799Z,24.37
2018-06-18T14:14:29.210Z,24.34
2018-06-18T14:17:02.672Z,24.32
2018-06-18T14:19:41.340Z,24.26
2018-06-18T14:22:14.743Z,24.22
2018-06-18T14:24:48.099Z,24.08
2018-06-18T14:27:21.520Z,23.98
2018-06-18T14:30:00.171Z,24.02
2018-06-18T14:32:38.995Z,24.04
2018-06-18T14:35:17.659Z,24.20
2018-06-18T14:37:56.468Z,24.20
2018-06-18T14:40:32.697Z,24.33
2018-06-18T14:43:06.448Z,24.38
2018-06-18T14:45:39.886Z,24.48
2018-06-18T14:48:13.291Z,24.40
2018-06-18T14:50:46.648Z,24.48
2018-06-18T14:53:20.065Z,24.55
2018-06-18T14:56:12.875Z,24.50
2018-06-18T14:58:51.135Z,24.55
2018-06-18T15:01:24.525Z,24.42
2018-06-18T15:03:57.948Z,24.39
2018-06-18T15:06:31.292Z,24.48
2018-06-18T15:09:06.333Z,24.56
2018-06-18T15:11:40.476Z,24.63
2018-06-18T15:14:13.977Z,24.63
2018-06-18T15:16:47.492Z,24.64
2018-06-18T15:19:21.004Z,24.58
2018-06-18T15:21:57.098Z,24.44
2018-06-18T15:24:40.850Z,24.48
2018-06-18T15:27:14.574Z,24.50
2018-06-18T15:29:48.107Z,24.55
2018-06-18T15:32:21.510Z,24.67
2018-06-18T15:34:54.927Z,24.57
2018-06-18T15:37:28.311Z,24.60
2018-06-18T15:40:01.715Z,24.62
2018-06-18T15:42:35.116Z,24.38
2018-06-18T15:45:08.533Z,24.37
2018-06-18T15:47:41.895Z,24.38
2018-06-18T15:50:15.384Z,24.25
2018-06-18T15:52:48.793Z,24.15
2018-06-18T15:55:22.172Z,24.25
2018-06-18T15:57:55.548Z,24.33
2018-06-18T16:00:28.918Z,24.40
2018-06-18T16:03:02.337Z,24.42
2018-06-18T16:05:35.711Z,24.46
2018-06-18T16:08:09.172Z,24.47
2018-06-18T16:10:42.563Z,24.41
2018-06-18T16:13:16.102Z,24.37
2018-06-18T16:15:49.483Z,24.22
2018-06-18T16:18:23.015Z,24.20
2018-06-18T16:20:56.372Z,24.09
2018-06-18T16:23:30.070Z,23.94
2018-06-18T16:26:03.478Z,23.86
2018-06-18T16:28:37.700Z,23.88
2018-06-18T16:31:11.054Z,23.85
2018-06-18T16:33:45.156Z,23.79
2018-06-18T16:36:18.564Z,23.85
2018-06-18T16:38:51.972Z,23.86
2018-06-18T16:41:25.423Z,23.91
2018-06-18T16:43:58.841Z,24.03
2018-06-18T16:46:32.284Z,24.11
2018-06-18T16:49:05.724Z,24.07
2018-06-18T16:51:39.160Z,24.09
2018-06-18T16:54:12.594Z,24.19
2018-06-18T16:56:46.051Z,24.09
2018-06-18T16:59:19.447Z,23.93
2018-06-18T17:01:52.869Z,23.96
2018-06-18T17:04:26.324Z,23.93
2018-06-18T17:06:59.735Z,23.96
2018-06-18T17:09:33.168Z,23.93
2018-06-18T17:12:06.656Z,23.89
2018-06-18T17:14:40.045Z,23.93
2018-06-18T17:17:13.983Z,23.87
2018-06-18T17:19:48.298Z,23.89
2018-06-18T17:22:21.732Z,23.89
2018-06-18T17:24:55.152Z,23.86
2018-06-18T17:27:28.557Z,23.74
2018-06-18T17:30:01.942Z,23.77
2018-06-18T17:32:35.372Z,23.69
2018-06-18T17:35:08.793Z,23.65
2018-06-18T17:37:42.208Z,23.56
2018-06-18T17:40:15.639Z,23.56
2018-06-18T17:42:49.054Z,23.55
2018-06-18T17:45:22.442Z,23.50
2018-06-18T17:47:55.833Z,23.48
2018-06-18T17:50:29.302Z,23.34
2018-06-18T17:53:02.757Z,23.34
2018-06-18T17:55:36.131Z,23.23
2018-06-18T17:58:09.544Z,23.03
2018-06-18T18:00:43.136Z,23.00
2018-06-18T18:03:16.741Z,22.96
2018-06-18T18:05:50.246Z,22.75
2018-06-18T18:08:23.886Z,22.69
2018-06-18T18:10:57.321Z,22.56
2018-06-18T18:13:30.798Z,22.52
2018-06-18T18:16:04.231Z,22.50
2018-06-18T18:18:37.909Z,22.49
2018-06-18T18:21:11.319Z,22.46
2018-06-18T18:23:44.771Z,22.31
2018-06-18T18:26:18.157Z,22.24
2018-06-18T18:28:51.561Z,22.13
2018-06-18T18:31:25.003Z,22.08
2018-06-18T18:33:58.400Z,22.04
2018-06-18T18:36:31.881Z,22.01
2018-06-18T18:39:07.928Z,22.14
2018-06-18T18:41:41.364Z,22.07
2018-06-18T18:44:14.782Z,22.08
2018-06-18T18:46:48.180Z,22.02
2018-06-18T18:49:21.570Z,21.99
2018-06-18T18:51:54.933Z,21.96
2018-06-18T18:55:42.633Z,21.90
2018-06-18T18:58:27.129Z,21.81
2018-06-18T19:01:00.513Z,21.86
2018-06-18T19:03:33.924Z,21.80
2018-06-18T19:06:07.289Z,21.83
2018-06-18T19:08:40.730Z,21.82
2018-06-18T19:11:14.519Z,21.74
2018-06-18T19:13:47.913Z,21.73
2018-06-18T19:16:21.285Z,21.69
2018-06-18T19:18:58.076Z,21.72
2018-06-18T19:21:31.444Z,21.70
2018-06-18T19:24:04.803Z,21.63
2018-06-18T19:26:38.197Z,21.65
2018-06-18T19:29:11.544Z,21.63
2018-06-18T19:31:45.109Z,21.63
2018-06-18T19:34:23.085Z,21.57
2018-06-18T19:36:57.648Z,21.61
2018-06-18T19:39:34.732Z,21.64
2018-06-18T19:42:08.274Z,21.60
2018-06-18T19:44:41.647Z,21.58
2018-06-18T19:47:18.821Z,21.52
2018-06-18T19:49:52.251Z,21.53
2018-06-18T19:52:25.596Z,21.51
2018-06-18T19:55:02.780Z,21.52
2018-06-18T19:57:36.131Z,21.52
2018-06-18T20:00:09.722Z,21.52
2018-06-18T20:02:43.187Z,21.48
2018-06-18T20:05:16.598Z,21.49
2018-06-18T20:07:57.754Z,21.47
2018-06-18T20:10:31.392Z,21.44
2018-06-18T20:13:06.451Z,21.44
2018-06-18T20:15:39.845Z,21.43
2018-06-18T20:18:13.267Z,21.37
2018-06-18T20:20:46.635Z,21.39
2018-06-18T20:23:22.229Z,21.37
2018-06-18T20:25:59.631Z,21.34
2018-06-18T20:28:33.008Z,21.35
2018-06-18T20:31:06.546Z,21.27
2018-06-18T20:33:46.602Z,21.28
2018-06-18T20:36:21.281Z,21.33
2018-06-18T20:38:54.661Z,21.35
2018-06-18T20:41:28.128Z,21.35
2018-06-18T20:44:06.892Z,21.38
2018-06-18T20:46:40.926Z,21.38
2018-06-18T20:49:15.275Z,21.32
2018-06-18T20:51:48.679Z,21.34
2018-06-18T20:54:22.134Z,21.34
2018-06-18T20:56:55.534Z,21.35
2018-06-18T20:59:29.094Z,21.35
2018-06-18T21:02:02.455Z,21.26
2018-06-18T21:04:35.876Z,21.21
2018-06-18T21:07:10.460Z,21.11
2018-06-18T21:09:44.872Z,21.06
2018-06-18T21:12:18.453Z,21.04
2018-06-18T21:14:52.813Z,21.01
2018-06-18T21:17:26.282Z,20.96
2018-06-18T21:19:59.677Z,20.95
2018-06-18T21:22:33.035Z,20.89
2018-06-18T21:25:06.452Z,20.86
2018-06-18T21:27:39.874Z,20.81
2018-06-18T21:30:13.341Z,20.80
2018-06-18T21:32:46.733Z,20.73
2018-06-18T21:35:20.178Z,20.68
2018-06-18T21:37:53.576Z,20.65
2018-06-18T21:40:26.945Z,20.61
2018-06-18T21:43:00.320Z,20.52
2018-06-18T21:45:33.740Z,20.46
2018-06-18T21:48:07.125Z,20.43
2018-06-18T21:50:40.505Z,20.40
2018-06-18T21:53:13.916Z,20.37
2018-06-18T21:55:47.355Z,20.35
2018-06-18T21:58:20.832Z,20.35
2018-06-18T22:00:54.256Z,20.36
2018-06-18T22:03:27.685Z,20.38
2018-06-18T22:06:01.144Z,20.39
2018-06-18T22:08:34.543Z,20.40
2018-06-18T22:11:07.976Z,20.42
2018-06-18T22:13:41.404Z,20.42
2018-06-18T22:16:14.905Z,20.47
2018-06-18T22:18:48.312Z,20.48
2018-06-18T22:21:21.743Z,20.48
2018-06-18T22:23:55.126Z,20.48
2018-06-18T22:26:28.580Z,20.50
2018-06-18T22:29:02.009Z,20.55
2018-06-18T22:31:36.089Z,20.55
2018-06-18T22:34:09.517Z,20.56
2018-06-18T22:36:42.940Z,20.54
2018-06-18T22:39:16.362Z,20.52
2018-06-18T22:41:49.791Z,20.47
2018-06-18T22:44:23.196Z,20.45
2018-06-18T22:46:56.626Z,20.36
2018-06-18T22:49:30.048Z,20.26
2018-06-18T22:52:03.584Z,20.25
2018-06-18T22:54:37.220Z,20.21
2018-06-18T22:57:10.702Z,20.15
2018-06-18T22:59:44.333Z,20.11
2018-06-18T23:02:20.848Z,20.06
2018-06-18T23:04:54.253Z,19.99
2018-06-18T23:07:27.684Z,19.97
2018-06-18T23:10:01.100Z,19.94
2018-06-18T23:12:40.461Z,19.93
2018-06-18T23:15:14.482Z,19.91
2018-06-18T23:17:47.919Z,19.92
2018-06-18T23:20:21.355Z,19.93
2018-06-18T23:22:54.811Z,19.94
2018-06-18T23:25:28.227Z,19.94
2018-06-18T23:28:01.678Z,19.94
2018-06-18T23:30:35.091Z,19.92
2018-06-18T23:33:08.506Z,19.96
2018-06-18T23:35:41.927Z,19.96
2018-06-18T23:38:15.351Z,19.98
2018-06-18T23:40:48.759Z,19.99
2018-06-18T23:43:22.180Z,19.99
2018-06-18T23:45:55.616Z,20.01
2018-06-18T23:48:29.047Z,20.01
2018-06-18T23:51:02.481Z,20.05
2018-06-18T23:53:35.924Z,20.06
2018-06-18T23:56:09.375Z,20.07
2018-06-18T23:58:42.840Z,20.07
